Time;durP1;ratioP1;P1;durP2;ratioP2;P2;SDS_P1;SDS_P2;PMS_P1;PMS_P2;Temp;Humidity;BMP_temperature;BMP_pressure;BME280_temperature;BME280_humidity;BME280_pressure;Samples;Min_cycle;Max_cycle;Signal;HPM_P1;HPM_P2
2023/01/03 00:00:50;;;;;;;16.73;8.93;;;;;;;10.50;76.81;100442.57;1763256;81;25405;-47
2023/01/03 00:03:18;;;;;;;23.95;10.63;;;;;;;10.52;76.69;100447.15;1763460;81;25600;-47
2023/01/03 00:05:49;;;;;;;17.45;8.93;;;;;;;10.53;76.57;100448.73;1737366;81;25580;-49
2023/01/03 00:08:15;;;;;;;17.62;9.85;;;;;;;10.54;76.27;100446.28;1763354;81;25626;-49
2023/01/03 00:10:41;;;;;;;17.25;8.93;;;;;;;10.54;76.37;100447.64;1763342;81;27401;-47
2023/01/03 00:13:08;;;;;;;18.20;9.45;;;;;;;10.55;76.14;100449.78;1763227;81;25393;-48
2023/01/03 00:15:37;;;;;;;19.90;9.05;;;;;;;10.54;76.01;100439.52;1763219;81;25595;-48
2023/01/03 00:18:04;;;;;;;20.68;9.00;;;;;;;10.55;75.99;100434.34;1737299;81;25566;-47
2023/01/03 00:20:33;;;;;;;16.60;9.43;;;;;;;10.56;75.89;100440.58;1763317;81;25397;-49
2023/01/03 00:23:00;;;;;;;18.12;9.53;;;;;;;10.56;75.50;100437.88;1763418;80;27403;-49
2023/01/03 00:25:28;;;;;;;17.27;9.18;;;;;;;10.55;75.69;100442.45;1737487;81;27119;-49
2023/01/03 00:27:55;;;;;;;20.55;9.30;;;;;;;10.54;75.35;100435.47;1753876;81;25607;-49
2023/01/03 00:30:23;;;;;;;19.17;9.23;;;;;;;10.55;75.53;100450.58;1749049;82;25458;-49
2023/01/03 00:32:49;;;;;;;18.92;9.88;;;;;;;10.53;75.58;100451.44;1749094;82;25507;-50
2023/01/03 00:35:16;;;;;;;19.77;9.98;;;;;;;10.53;75.29;100433.86;1749061;82;27340;-50
2023/01/03 00:37:42;;;;;;;20.60;9.55;;;;;;;10.54;75.35;100455.75;1749007;82;25388;-48
2023/01/03 00:40:10;;;;;;;20.82;10.10;;;;;;;10.53;75.02;100460.11;1749013;82;25378;-48
2023/01/03 00:43:27;;;;;;;20.35;9.33;;;;;;;10.55;74.83;100467.36;1748969;82;25461;-48
2023/01/03 00:45:07;;;;;;;19.98;10.00;;;;;;;10.54;75.20;100471.16;1744740;82;25465;-50
2023/01/03 00:47:33;;;;;;;18.37;9.50;;;;;;;10.54;75.00;100481.45;1749063;82;27333;-48
2023/01/03 00:49:59;;;;;;;16.25;8.78;;;;;;;10.53;74.89;100475.77;1748896;82;25638;-49
2023/01/03 00:52:25;;;;;;;20.95;9.08;;;;;;;10.52;75.07;100482.31;1749028;82;25619;-48
2023/01/03 00:54:52;;;;;;;21.45;9.48;;;;;;;10.49;75.08;100480.20;1748932;82;25433;-48
2023/01/03 00:57:18;;;;;;;17.90;8.80;;;;;;;10.46;74.88;100484.30;1749129;82;25442;-48
2023/01/03 00:59:44;;;;;;;19.25;10.32;;;;;;;10.44;75.06;100477.05;1748966;81;27293;-49
2023/01/03 01:02:10;;;;;;;24.25;9.75;;;;;;;10.43;75.09;100482.20;1748863;82;25454;-48
2023/01/03 01:04:37;;;;;;;18.15;9.95;;;;;;;10.40;75.07;100484.18;1749016;82;25615;-48
2023/01/03 01:07:04;;;;;;;19.42;10.08;;;;;;;10.38;75.17;100485.02;1748997;82;25409;-48
2023/01/03 01:09:35;;;;;;;18.17;9.38;;;;;;;10.35;75.08;100480.23;1749038;82;25662;-48
2023/01/03 01:12:04;;;;;;;20.82;9.28;;;;;;;10.33;75.15;100487.82;1704936;82;27434;-49
2023/01/03 01:14:32;;;;;;;16.90;9.05;;;;;;;10.29;75.19;100495.70;1749049;82;25540;-51
2023/01/03 01:17:03;;;;;;;18.12;9.73;;;;;;;10.28;75.28;100495.48;1748961;82;25591;-48
2023/01/03 01:19:40;;;;;;;20.88;9.80;;;;;;;10.25;75.33;100502.83;1748989;82;25410;-49
2023/01/03 01:22:09;;;;;;;18.70;9.18;;;;;;;10.24;75.45;100494.46;1749051;82;25457;-51
2023/01/03 01:24:36;;;;;;;20.02;9.43;;;;;;;10.24;75.51;100493.67;1749228;82;27885;-49
2023/01/03 01:27:03;;;;;;;16.97;8.80;;;;;;;10.22;75.50;100487.20;1748821;81;25454;-49
2023/01/03 01:29:29;;;;;;;19.85;9.43;;;;;;;10.23;75.65;100499.64;1749025;81;25581;-49
2023/01/03 01:31:55;;;;;;;18.25;9.43;;;;;;;10.24;75.69;100493.67;1748954;81;25454;-47
2023/01/03 01:34:23;;;;;;;16.75;8.60;;;;;;;10.24;75.77;100499.08;1749006;82;25564;-48
2023/01/03 01:36:49;;;;;;;20.27;9.38;;;;;;;10.24;75.78;100513.38;1748980;82;27520;-49
2023/01/03 01:39:26;;;;;;;17.62;9.25;;;;;;;10.25;75.77;100508.80;1748948;82;25584;-49
2023/01/03 01:45:01;;;;;;;19.85;9.55;;;;;;;10.28;75.81;100519.80;1748967;82;25625;-47
2023/01/03 01:47:45;;;;;;;16.37;9.40;;;;;;;10.27;75.81;100522.25;1749026;82;25636;-48
2023/01/03 01:50:17;;;;;;;16.90;9.08;;;;;;;10.29;75.82;100523.30;1749068;82;28204;-48
2023/01/03 01:52:49;;;;;;;18.15;10.03;;;;;;;10.29;75.73;100531.41;1748999;82;25386;-50
2023/01/03 01:55:20;;;;;;;22.52;10.25;;;;;;;10.29;75.77;100526.80;1736483;82;25431;-47
2023/01/03 01:57:47;;;;;;;19.70;9.28;;;;;;;10.30;75.76;100534.38;1748922;81;25434;-47
2023/01/03 02:00:14;;;;;;;19.77;10.00;;;;;;;10.32;75.77;100529.50;1749001;82;25386;-46
2023/01/03 02:02:43;;;;;;;20.97;9.05;;;;;;;10.33;75.71;100531.64;1748921;82;27511;-46
2023/01/03 02:05:11;;;;;;;17.77;8.33;;;;;;;10.34;75.72;100533.25;1749130;82;25390;-46
2023/01/03 02:07:39;;;;;;;17.82;9.28;;;;;;;10.34;75.71;100540.02;1748982;82;25577;-47
2023/01/03 02:10:09;;;;;;;16.55;7.90;;;;;;;10.36;75.72;100534.54;1748899;81;25385;-50
2023/01/03 02:13:05;;;;;;;19.02;9.30;;;;;;;10.37;75.70;100541.56;1748945;81;25595;-49
2023/01/03 02:16:04;;;;;;;18.55;9.78;;;;;;;10.39;75.39;100538.56;1747924;82;28043;-48
2023/01/03 02:18:38;;;;;;;19.73;8.43;;;;;;;10.41;75.53;100549.31;1749144;82;25624;-47
2023/01/03 02:21:41;;;;;;;18.57;9.53;;;;;;;10.40;75.47;100546.38;1748449;82;25391;-48
2023/01/03 02:24:35;;;;;;;18.42;8.90;;;;;;;10.43;75.56;100555.21;1749000;82;25377;-48
2023/01/03 02:27:19;;;;;;;17.05;8.18;;;;;;;10.42;75.43;100546.05;1749109;81;25563;-48
2023/01/03 02:30:31;;;;;;;19.45;8.63;;;;;;;10.42;75.54;100550.92;1712731;83;28021;-49
2023/01/03 02:33:39;;;;;;;17.35;8.65;;;;;;;10.42;75.52;100538.75;1713419;83;27206;-47
2023/01/03 02:36:31;;;;;;;17.65;8.80;;;;;;;10.41;75.53;100565.53;1703118;84;25647;-50
2023/01/03 02:39:28;;;;;;;17.12;8.00;;;;;;;10.42;75.55;100575.27;1703071;84;25613;-48
2023/01/03 02:45:16;;;;;;;21.25;8.78;;;;;;;10.41;75.47;100579.05;1703019;84;27405;-48
2023/01/03 02:47:57;;;;;;;17.85;8.48;;;;;;;10.41;75.58;100576.34;1691220;84;25685;-47
2023/01/03 02:50:27;;;;;;;19.32;8.58;;;;;;;10.40;75.64;100569.36;1703161;84;25444;-47
2023/01/03 02:52:59;;;;;;;16.87;8.23;;;;;;;10.42;75.66;100579.84;1703117;84;25602;-47
2023/01/03 02:55:30;;;;;;;20.02;9.30;;;;;;;10.40;75.69;100580.70;1703372;84;25626;-48
2023/01/03 02:58:01;;;;;;;16.97;8.80;;;;;;;10.40;75.71;100584.23;1703347;84;27388;-49
2023/01/03 03:00:32;;;;;;;19.10;8.53;;;;;;;10.39;75.73;100578.56;1702735;84;26135;-48
2023/01/03 03:03:05;;;;;;;20.82;8.83;;;;;;;10.38;75.79;100586.41;1703299;82;25591;-48
2023/01/03 03:05:37;;;;;;;17.57;9.33;;;;;;;10.39;75.82;100572.36;1703245;84;25573;-46
2023/01/03 03:08:04;;;;;;;16.55;8.20;;;;;;;10.38;75.83;100565.34;1730584;82;25625;-46
2023/01/03 03:13:27;;;;;;;18.12;8.38;;;;;;;10.37;75.88;100579.95;1716786;82;25628;-46
2023/01/03 03:16:47;;;;;;;16.27;7.87;;;;;;;10.34;75.92;100588.12;1684852;85;25574;-47
2023/01/03 03:25:29;;;;;;;14.45;8.20;;;;;;;10.27;76.44;100606.62;1708211;84;27346;-47
2023/01/03 03:30:54;;;;;;;15.13;8.23;;;;;;;10.21;76.61;100611.86;1679654;84;25609;-47
2023/01/03 03:33:24;;;;;;;15.03;8.33;;;;;;;10.17;76.77;100619.77;1708183;84;25373;-47
2023/01/03 03:36:20;;;;;;;20.92;7.95;;;;;;;10.17;76.72;100621.67;1708264;84;25657;-48
2023/01/03 03:38:47;;;;;;;14.60;8.55;;;;;;;10.12;76.82;100623.91;1674179;85;29506;-47
2023/01/03 03:47:06;;;;;;;18.07;8.60;;;;;;;10.03;77.23;100627.85;1674212;84;25541;-47
2023/01/03 03:49:36;;;;;;;17.45;8.28;;;;;;;10.00;77.35;100642.51;1673944;85;25465;-45
2023/01/03 03:52:14;;;;;;;17.75;7.53;;;;;;;9.96;77.51;100647.70;1674172;85;26543;-47
2023/01/03 03:54:46;;;;;;;12.55;7.28;;;;;;;9.93;77.67;100642.89;1673808;85;25572;-47
2023/01/03 03:57:23;;;;;;;18.60;6.95;;;;;;;9.89;77.57;100648.08;1674160;85;25716;-49
2023/01/03 03:59:55;;;;;;;18.20;7.22;;;;;;;9.85;77.61;100658.41;1674148;85;25881;-47
2023/01/03 04:02:25;;;;;;;14.30;7.62;;;;;;;9.81;77.48;100665.52;1674171;85;25580;-47
2023/01/03 04:04:55;;;;;;;;;;;;;;;9.77;78.01;100672.03;1676549;85;27365;-47
2023/01/03 04:07:22;;;;;;;15.65;7.17;;;;;;;9.73;77.65;100675.08;1674020;85;25507;-48
2023/01/03 04:09:48;;;;;;;15.78;7.55;;;;;;;9.69;77.90;100687.58;1674118;85;25533;-49
2023/01/03 04:12:15;;;;;;;15.58;7.58;;;;;;;9.65;77.87;100693.30;1651085;85;25592;-47
2023/01/03 04:14:41;;;;;;;14.75;8.38;;;;;;;9.61;78.39;100689.58;1679180;84;25508;-46
2023/01/03 04:17:07;;;;;;;16.57;7.78;;;;;;;9.57;78.52;100694.77;1708187;84;28106;-47
2023/01/03 04:19:33;;;;;;;18.12;8.13;;;;;;;9.53;78.73;100701.30;1708085;84;25807;-47
2023/01/03 04:21:59;;;;;;;15.63;8.40;;;;;;;9.51;79.01;100708.88;1708169;84;25509;-48
2023/01/03 04:24:27;;;;;;;12.68;7.55;;;;;;;9.49;79.24;100706.22;1708104;84;25640;-46
2023/01/03 04:26:53;;;;;;;16.73;7.45;;;;;;;9.47;79.34;100717.31;1708246;84;25470;-47
2023/01/03 04:29:19;;;;;;;14.13;7.15;;;;;;;9.45;79.70;100710.58;1708131;83;27269;-47
2023/01/03 04:31:46;;;;;;;17.10;8.40;;;;;;;9.43;79.64;100714.13;1708110;84;25414;-49
2023/01/03 04:34:12;;;;;;;17.35;8.18;;;;;;;9.39;79.81;100713.11;1708154;84;25410;-48
2023/01/03 04:36:39;;;;;;;16.35;6.92;;;;;;;9.37;79.81;100713.95;1708176;84;25561;-48
2023/01/03 04:39:05;;;;;;;14.63;7.17;;;;;;;9.33;79.74;100717.23;1708223;84;25682;-48
2023/01/03 04:41:31;;;;;;;14.80;6.67;;;;;;;9.32;79.71;100726.96;1708163;84;27458;-51
2023/01/03 04:44:00;;;;;;;13.48;6.40;;;;;;;9.27;79.59;100722.42;1708050;84;25576;-48
2023/01/03 04:46:38;;;;;;;12.53;6.03;;;;;;;9.22;79.52;100725.19;1679717;84;25666;-50
2023/01/03 04:49:07;;;;;;;12.03;6.37;;;;;;;9.19;79.61;100732.51;1708203;84;25439;-48
2023/01/03 04:51:34;;;;;;;8.23;4.75;;;;;;;9.15;79.45;100730.14;1708362;84;25649;-48
2023/01/03 04:54:02;;;;;;;9.40;5.40;;;;;;;9.08;79.29;100731.04;1708141;84;29537;-47
2023/01/03 04:56:33;;;;;;;11.60;5.70;;;;;;;9.05;79.13;100741.05;1708104;84;25470;-48
2023/01/03 04:59:00;;;;;;;5.95;4.62;;;;;;;9.00;79.00;100740.56;1708206;84;25478;-47
2023/01/03 05:01:28;;;;;;;7.17;4.55;;;;;;;8.96;78.87;100741.69;1708137;84;25981;-48
2023/01/03 05:04:02;;;;;;;8.98;4.75;;;;;;;8.93;78.78;100750.90;1680036;84;25579;-46
2023/01/03 05:06:28;;;;;;;5.75;4.40;;;;;;;8.88;78.78;100761.74;1680005;84;27465;-47
2023/01/03 05:08:55;;;;;;;8.50;4.35;;;;;;;8.83;78.69;100759.89;1708051;84;25486;-48
2023/01/03 05:11:22;;;;;;;8.03;4.08;;;;;;;8.79;78.55;100767.75;1708186;84;25661;-48
2023/01/03 05:13:48;;;;;;;8.63;3.52;;;;;;;8.75;78.36;100766.73;1708100;84;25454;-48
2023/01/03 05:16:15;;;;;;;6.25;4.20;;;;;;;8.70;78.24;100766.78;1708136;84;25631;-51
2023/01/03 05:18:41;;;;;;;7.20;4.15;;;;;;;8.67;78.14;100774.64;1708136;84;27408;-50
2023/01/03 05:26:45;;;;;;;5.75;3.45;;;;;;;8.56;78.10;100776.60;1708130;84;25545;-47
2023/01/03 05:29:16;;;;;;;5.33;3.42;;;;;;;8.51;78.02;100769.38;1709977;83;25560;-47
2023/01/03 05:31:43;;;;;;;6.60;4.35;;;;;;;8.48;78.00;100775.34;1711135;83;27547;-47
2023/01/03 05:34:10;;;;;;;9.00;4.12;;;;;;;8.45;77.94;100777.24;1711611;83;25404;-47
2023/01/03 05:36:37;;;;;;;6.47;4.45;;;;;;;8.41;77.90;100781.02;1711708;83;25400;-47
2023/01/03 05:39:04;;;;;;;7.45;4.35;;;;;;;8.36;77.90;100774.32;1686903;83;25543;-48
2023/01/03 05:44:16;;;;;;;5.30;3.45;;;;;;;8.31;77.89;100779.75;1711704;83;27631;-48
2023/01/03 05:46:44;;;;;;;7.87;4.00;;;;;;;8.27;77.90;100785.43;1711595;83;25446;-47
2023/01/03 05:49:11;;;;;;;6.40;3.50;;;;;;;8.23;77.87;100792.48;1686785;83;25647;-47
2023/01/03 05:51:38;;;;;;;6.97;3.98;;;;;;;8.18;77.96;100789.27;1686854;83;26796;-48
2023/01/03 05:54:05;;;;;;;6.20;4.08;;;;;;;8.16;77.96;100797.39;1711743;83;25207;-47
2023/01/03 05:56:32;;;;;;;6.92;4.20;;;;;;;8.12;78.09;100793.63;1711700;83;27897;-48
2023/01/03 05:58:59;;;;;;;5.90;3.52;;;;;;;8.07;78.11;100795.83;1686836;83;25484;-47
2023/01/03 06:01:27;;;;;;;4.83;3.40;;;;;;;8.04;78.35;100798.53;1711688;83;25579;-47
2023/01/03 06:03:54;;;;;;;5.33;3.37;;;;;;;8.00;78.34;100804.22;1711632;83;25982;-48
2023/01/03 06:06:21;;;;;;;6.95;3.17;;;;;;;7.95;78.37;100812.86;1711724;83;25607;-48
2023/01/03 06:08:48;;;;;;;4.25;2.98;;;;;;;7.92;78.50;100814.78;1711658;83;27402;-46
2023/01/03 06:11:17;;;;;;;4.97;2.95;;;;;;;7.89;78.53;100812.64;1711610;83;25642;-49
2023/01/03 06:13:44;;;;;;;5.50;2.87;;;;;;;7.84;78.60;100815.61;1711889;83;25582;-48
2023/01/03 06:19:03;;;;;;;6.53;3.12;;;;;;;7.77;79.00;100823.19;1711843;83;25749;-49
2023/01/03 06:21:30;;;;;;;;;;;;;;;7.74;79.00;100822.94;1714265;83;27998;-50
2023/01/03 06:23:57;;;;;;;7.03;3.00;;;;;;;7.70;79.46;100831.32;1711569;83;25584;-48
2023/01/03 06:26:25;;;;;;;7.22;3.80;;;;;;;7.66;79.60;100837.77;1711779;83;25583;-47
2023/01/03 06:28:52;;;;;;;6.50;3.00;;;;;;;7.65;79.70;100838.32;1713569;83;26073;-47
2023/01/03 06:31:21;;;;;;;6.05;3.02;;;;;;;7.63;80.03;100843.19;1719418;83;25584;-48
2023/01/03 06:33:48;;;;;;;8.10;3.12;;;;;;;7.64;80.08;100849.36;1719523;82;27382;-49
2023/01/03 06:36:19;;;;;;;6.00;3.47;;;;;;;7.64;80.46;100852.88;1719260;83;25806;-47
2023/01/03 06:38:47;;;;;;;5.10;3.30;;;;;;;7.67;80.39;100862.28;1719407;83;25573;-47
2023/01/03 06:41:16;;;;;;;6.20;3.52;;;;;;;7.70;80.24;100869.02;1719347;83;25670;-48
2023/01/03 06:43:43;;;;;;;7.10;4.15;;;;;;;7.72;80.15;100865.50;1719622;83;25612;-47
2023/01/03 06:54:37;;;;;;;4.90;3.47;;;;;;;7.81;79.83;100880.80;1719319;83;25455;-48
2023/01/03 06:57:04;;;;;;;8.05;3.55;;;;;;;7.83;79.73;100873.27;1719387;83;25580;-45
2023/01/03 06:59:32;;;;;;;7.37;3.12;;;;;;;7.84;79.64;100868.13;1719354;83;27868;-51
2023/01/03 07:01:58;;;;;;;5.92;3.05;;;;;;;7.86;79.55;100875.38;1719286;83;25221;-48
2023/01/03 07:04:26;;;;;;;7.35;2.98;;;;;;;7.88;79.46;100866.23;1719362;83;25592;-48
2023/01/03 07:06:53;;;;;;;9.88;4.05;;;;;;;7.90;79.33;100881.05;1726793;83;26082;-49
2023/01/03 07:09:20;;;;;;;5.62;2.35;;;;;;;7.90;79.20;100893.17;1726862;83;25556;-50
2023/01/03 07:11:47;;;;;;;5.70;2.70;;;;;;;7.92;79.07;100910.41;1726895;83;28297;-49
2023/01/03 07:14:17;;;;;;;5.00;2.65;;;;;;;7.94;79.01;100913.62;1726805;83;25231;-48
2023/01/03 07:16:47;;;;;;;8.18;3.02;;;;;;;7.93;78.81;100911.45;1727016;83;25513;-49
2023/01/03 07:19:18;;;;;;;4.15;2.62;;;;;;;7.95;78.82;100913.35;1726733;83;25582;-48
2023/01/03 07:21:46;;;;;;;5.85;2.80;;;;;;;7.96;78.89;100921.68;1726982;83;25660;-48
2023/01/03 07:24:17;;;;;;;11.65;2.85;;;;;;;7.96;78.92;100918.19;1726835;83;27340;-51
2023/01/03 07:26:43;;;;;;;6.17;2.47;;;;;;;7.98;78.90;100930.29;1726781;83;25538;-48
2023/01/03 07:29:10;;;;;;;5.87;2.33;;;;;;;7.99;78.86;100938.64;1724112;82;25582;-50
2023/01/03 07:31:41;;;;;;;5.95;2.62;;;;;;;7.98;78.91;100935.67;1715800;83;25513;-48
2023/01/03 07:34:09;;;;;;;5.22;3.12;;;;;;;7.97;78.89;100934.08;1715842;83;25613;-49
2023/01/03 07:36:36;;;;;;;4.35;2.08;;;;;;;7.98;78.83;100934.33;1715781;83;27324;-47
2023/01/03 07:39:03;;;;;;;3.67;2.50;;;;;;;7.98;78.89;100941.61;1715666;83;25416;-49
2023/01/03 07:44:14;;;;;;;4.92;3.30;;;;;;;7.96;78.96;100953.21;1715891;83;25607;-48
2023/01/03 07:46:41;;;;;;;4.20;2.35;;;;;;;7.98;79.04;100955.08;1715903;83;25645;-48
2023/01/03 07:49:07;;;;;;;5.53;2.10;;;;;;;7.96;79.04;100960.74;1715847;83;29590;-50
2023/01/03 07:51:33;;;;;;;5.58;2.30;;;;;;;7.97;79.04;100965.06;1715840;83;25577;-48
2023/01/03 07:54:01;;;;;;;2.77;2.22;;;;;;;7.96;78.98;100969.37;1715908;83;25500;-47
2023/01/03 07:56:28;;;;;;;4.55;2.22;;;;;;;7.94;78.96;100972.34;1715962;83;25466;-50
2023/01/03 07:58:55;;;;;;;4.03;2.08;;;;;;;7.95;79.03;100982.56;1715887;83;25621;-47
2023/01/03 08:01:23;;;;;;;3.95;2.08;;;;;;;7.96;78.98;100981.50;1704949;83;27571;-51
2023/01/03 08:03:50;;;;;;;5.00;2.25;;;;;;;7.96;78.98;100981.50;1715890;83;25625;-49
2023/01/03 08:06:23;;;;;;;4.28;2.37;;;;;;;7.98;79.00;100977.98;1715902;83;25567;-50
2023/01/03 08:14:23;;;;;;;2.90;2.00;;;;;;;8.00;78.98;100982.03;1715929;83;28004;-48
2023/01/03 08:16:50;;;;;;;3.52;3.02;;;;;;;8.03;79.03;100980.66;1715758;83;25498;-48
2023/01/03 08:19:16;;;;;;;4.50;2.70;;;;;;;8.06;79.24;100984.16;1715835;83;25549;-48
2023/01/03 08:21:42;;;;;;;4.72;2.90;;;;;;;8.07;79.28;100980.39;1715856;83;25722;-48
2023/01/03 08:24:08;;;;;;;6.72;3.27;;;;;;;8.10;79.33;100977.67;1715934;83;25588;-47
2023/01/03 08:26:34;;;;;;;4.47;3.22;;;;;;;8.13;79.40;100995.44;1715939;83;27331;-48
2023/01/03 08:29:01;;;;;;;7.58;3.42;;;;;;;8.16;79.51;100982.77;1705580;82;25571;-47
2023/01/03 08:31:30;;;;;;;8.95;3.27;;;;;;;8.19;79.71;100991.66;1731615;82;25390;-47
2023/01/03 08:34:02;;;;;;;5.78;3.47;;;;;;;8.25;79.71;101003.22;1731601;82;26316;-52
2023/01/03 08:36:34;;;;;;;5.25;3.90;;;;;;;8.28;79.63;100993.78;1731689;82;25459;-47
2023/01/03 08:39:08;;;;;;;6.70;4.00;;;;;;;8.33;79.75;100995.11;1730291;82;27396;-47
2023/01/03 08:41:43;;;;;;;8.08;4.12;;;;;;;8.40;79.77;101005.84;1731676;82;25629;-48
2023/01/03 08:44:10;;;;;;;7.05;3.60;;;;;;;8.46;79.81;101003.16;1730589;82;25682;-48
2023/01/03 08:46:45;;;;;;;5.60;4.12;;;;;;;8.54;79.80;100997.19;1730678;82;25692;-47
2023/01/03 08:49:12;;;;;;;7.10;3.77;;;;;;;8.58;79.77;101004.45;1731224;82;25623;-48
2023/01/03 08:51:39;;;;;;;7.65;4.58;;;;;;;8.64;79.75;101009.81;1731580;82;27393;-46
2023/01/03 08:54:05;;;;;;;8.38;5.70;;;;;;;8.67;79.69;101009.27;1731488;82;25821;-47
2023/01/03 08:56:33;;;;;;;8.75;5.55;;;;;;;8.66;79.55;101010.34;1731583;82;25607;-48
2023/01/03 08:59:01;;;;;;;7.80;5.97;;;;;;;8.67;79.59;101009.27;1731613;82;25595;-47
2023/01/03 09:01:27;;;;;;;6.58;4.83;;;;;;;8.65;79.60;101012.23;1731643;82;25655;-49
2023/01/03 09:03:53;;;;;;;6.95;5.00;;;;;;;8.63;79.69;101011.69;1724472;82;27409;-52
2023/01/03 09:06:20;;;;;;;11.00;6.55;;;;;;;8.63;79.84;101015.73;1731514;82;25612;-47
2023/01/03 09:08:47;;;;;;;10.98;8.53;;;;;;;8.64;79.88;101016.01;1731704;82;25612;-47
2023/01/03 09:11:14;;;;;;;9.13;6.17;;;;;;;8.64;79.91;101016.56;1724496;82;25684;-47
2023/01/03 09:13:40;;;;;;;10.25;5.92;;;;;;;8.65;79.83;101015.45;1731591;82;25550;-47
2023/01/03 09:16:11;;;;;;;12.03;7.25;;;;;;;8.64;79.93;101026.00;1731566;82;29497;-48
2023/01/03 09:18:40;;;;;;;8.85;6.53;;;;;;;8.63;79.87;101033.27;1731524;82;25470;-48
2023/01/03 09:21:07;;;;;;;11.20;6.33;;;;;;;8.62;79.67;101033.56;1731830;82;25408;-48
2023/01/03 09:23:35;;;;;;;10.55;5.80;;;;;;;8.60;79.70;101039.23;1731570;82;25468;-48
2023/01/03 09:26:03;;;;;;;8.08;6.28;;;;;;;8.60;79.90;101038.68;1731584;82;25453;-48
2023/01/03 09:28:29;;;;;;;11.97;6.42;;;;;;;8.61;79.93;101038.13;1731601;82;27339;-49
2023/01/03 09:30:57;;;;;;;8.00;5.80;;;;;;;8.62;79.84;101041.10;1720545;82;25418;-48
2023/01/03 09:33:23;;;;;;;8.15;5.55;;;;;;;8.58;79.38;101044.07;1715809;83;25633;-52
2023/01/03 09:35:55;;;;;;;8.43;4.92;;;;;;;8.57;78.68;101045.17;1715779;83;25653;-48
2023/01/03 09:38:22;;;;;;;10.15;5.00;;;;;;;8.55;78.30;101040.61;1715851;82;25502;-48
2023/01/03 09:41:06;;;;;;;4.92;4.22;;;;;;;8.53;77.96;101036.83;1715804;83;27394;-48
2023/01/03 09:43:39;;;;;;;9.40;4.55;;;;;;;8.48;77.11;101036.86;1715732;83;25589;-47
2023/01/03 09:46:23;;;;;;;6.15;4.97;;;;;;;8.46;76.98;101035.51;1715798;83;25621;-48
2023/01/03 09:48:54;;;;;;;5.87;4.53;;;;;;;8.45;77.12;101048.73;1715799;83;26016;-49
2023/01/03 10:03:45;;;;;;;10.08;4.92;;;;;;;8.74;76.12;101048.31;1715762;83;25392;-50
2023/01/03 10:06:37;;;;;;;7.62;4.95;;;;;;;8.82;76.30;101041.55;1715719;83;25469;-50
2023/01/03 10:09:30;;;;;;;9.80;5.17;;;;;;;9.01;76.12;101053.02;1715774;83;27355;-47
2023/01/03 10:12:17;;;;;;;11.15;6.03;;;;;;;9.26;78.89;101047.98;1715683;83;25722;-52
2023/01/03 10:14:58;;;;;;;9.05;5.25;;;;;;;9.63;76.27;101048.77;1704465;83;25718;-48
2023/01/03 10:17:42;;;;;;;9.08;5.87;;;;;;;10.00;76.23;101051.39;1715791;83;25458;-48
2023/01/03 10:20:32;;;;;;;4.97;4.30;;;;;;;10.78;75.36;101049.97;1707335;84;25560;-51
2023/01/03 10:23:00;;;;;;;6.60;5.95;;;;;;;11.29;72.91;101041.62;1679536;84;27991;-49
2023/01/03 10:25:29;;;;;;;10.70;5.85;;;;;;;11.39;71.33;101051.76;1707991;84;25635;-48
2023/01/03 10:28:06;;;;;;;10.95;5.42;;;;;;;11.38;69.98;101052.84;1708234;84;32324;-48
2023/01/03 10:31:05;;;;;;;6.67;5.37;;;;;;;11.26;69.30;101060.63;1707567;83;25865;-48
2023/01/03 10:33:45;;;;;;;7.28;4.97;;;;;;;11.13;68.56;101062.72;1679828;84;25403;-49
2023/01/03 10:36:15;;;;;;;8.83;4.83;;;;;;;10.91;67.57;101060.05;1708287;84;27374;-48
2023/01/03 10:38:43;;;;;;;;;;;;;;;10.70;67.46;101058.73;1709484;84;25462;-48
2023/01/03 10:41:44;;;;;;;7.43;3.83;;;;;;;10.50;67.34;101062.50;1708364;84;25482;-48
2023/01/03 10:44:27;;;;;;;6.35;2.50;;;;;;;10.37;65.81;101054.52;1708054;84;25567;-48
2023/01/03 10:46:58;;;;;;;5.33;2.08;;;;;;;10.24;65.91;101062.20;1708152;84;25557;-47
2023/01/03 10:49:31;;;;;;;3.08;2.10;;;;;;;10.69;64.53;101070.08;1708157;84;27427;-50
2023/01/03 10:52:12;;;;;;;4.20;2.00;;;;;;;10.77;64.48;101077.55;1708053;84;25440;-46
2023/01/03 10:54:50;;;;;;;2.55;2.12;;;;;;;10.74;63.43;101084.09;1708197;84;25587;-47
2023/01/03 10:57:53;;;;;;;3.98;2.35;;;;;;;10.52;63.21;101083.30;1679901;84;25511;-48
2023/01/03 11:00:34;;;;;;;4.70;2.05;;;;;;;10.80;64.91;101072.13;1708122;84;25628;-47
2023/01/03 11:03:15;;;;;;;6.17;2.15;;;;;;;11.30;62.91;101087.37;1708128;84;27343;-47
2023/01/03 11:05:46;;;;;;;5.10;2.12;;;;;;;11.66;62.95;101080.58;1708029;84;25602;-49
2023/01/03 11:08:20;;;;;;;4.65;2.02;;;;;;;12.35;62.69;101086.14;1708121;84;25428;-48
2023/01/03 11:10:59;;;;;;;8.83;2.85;;;;;;;13.08;61.34;101084.89;1707721;84;25552;-48
2023/01/03 11:13:41;;;;;;;5.20;2.27;;;;;;;13.73;61.42;101080.91;1708271;84;25993;-48
2023/01/03 11:16:17;;;;;;;4.83;2.70;;;;;;;14.16;58.55;101086.33;1708103;84;28022;-48
2023/01/03 11:19:04;;;;;;;6.60;2.98;;;;;;;14.14;58.02;101085.84;1708188;84;25636;-47
2023/01/03 11:21:59;;;;;;;5.78;2.92;;;;;;;14.64;57.87;101083.39;1708228;84;25399;-47
2023/01/03 11:24:33;;;;;;;5.90;3.02;;;;;;;14.98;55.59;101085.92;1707871;83;25568;-48
2023/01/03 11:27:17;;;;;;;4.95;2.30;;;;;;;14.76;54.94;101090.37;1708377;84;25467;-49
2023/01/03 11:30:08;;;;;;;3.35;2.10;;;;;;;14.65;54.42;101094.53;1707561;84;27354;-48
2023/01/03 11:32:52;;;;;;;5.53;2.75;;;;;;;14.45;53.80;101098.60;1645957;87;25621;-50
2023/01/03 11:35:54;;;;;;;4.72;2.92;;;;;;;14.00;52.67;101107.70;1646172;87;25586;-50
2023/01/03 11:38:53;;;;;;;5.17;2.20;;;;;;;13.72;51.65;101098.33;1610877;89;25553;-49
2023/01/03 11:41:58;;;;;;;4.72;2.60;;;;;;;13.08;52.33;101093.04;1610777;89;25595;-52
2023/01/03 11:45:05;;;;;;;5.40;2.62;;;;;;;12.74;52.94;101104.37;1610964;89;27341;-50
2023/01/03 11:48:06;;;;;;;4.97;2.45;;;;;;;12.61;54.39;101101.35;1610827;89;26116;-49
2023/01/03 11:51:09;;;;;;;5.58;2.52;;;;;;;12.45;54.54;101104.94;1611054;89;25444;-51
2023/01/03 11:53:47;;;;;;;6.65;1.95;;;;;;;12.41;54.29;101104.47;1610576;89;25466;-50
2023/01/03 11:56:24;;;;;;;9.28;2.62;;;;;;;12.17;54.16;101096.53;1610977;89;25708;-50
2023/01/03 11:59:34;;;;;;;6.28;2.47;;;;;;;12.00;54.51;101099.25;1611025;89;27386;-50
2023/01/03 12:02:35;;;;;;;9.63;4.33;;;;;;;11.73;53.31;101107.56;1610730;89;25480;-48
2023/01/03 12:05:29;;;;;;;10.58;4.97;;;;;;;11.40;54.54;101112.94;1610991;89;25583;-50
2023/01/03 12:08:12;;;;;;;6.22;3.25;;;;;;;11.10;54.87;101101.20;1610574;89;25534;-51
2023/01/03 12:10:44;;;;;;;5.67;2.90;;;;;;;10.81;55.03;101096.20;1646732;86;25707;-51
2023/01/03 12:13:43;;;;;;;7.95;3.42;;;;;;;10.62;54.77;101106.98;1658676;86;28403;-48
2023/01/03 12:16:25;;;;;;;4.45;2.50;;;;;;;10.46;54.86;101110.41;1708270;84;25609;-49
2023/01/03 12:19:09;;;;;;;5.20;2.58;;;;;;;10.26;54.70;101111.95;1708251;84;25509;-49
2023/01/03 12:21:53;;;;;;;4.92;2.65;;;;;;;10.04;55.79;101123.25;1707555;84;25469;-50
2023/01/03 12:24:30;;;;;;;6.40;3.37;;;;;;;10.28;56.19;101123.27;1708272;84;25399;-51
2023/01/03 12:27:34;;;;;;;4.67;3.22;;;;;;;10.74;56.57;101113.86;1707815;83;29596;-51
2023/01/03 12:30:35;;;;;;;5.72;2.60;;;;;;;11.25;55.63;101111.02;1708181;84;25631;-50
2023/01/03 12:33:25;;;;;;;9.03;4.60;;;;;;;11.77;55.47;101111.84;1708231;84;25563;-51
2023/01/03 12:36:06;;;;;;;8.48;3.52;;;;;;;12.40;56.67;101116.45;1708141;84;25448;-51
2023/01/03 12:38:41;;;;;;;5.45;2.55;;;;;;;12.91;54.17;101108.61;1696733;84;25441;-50
2023/01/03 12:41:31;;;;;;;8.35;2.95;;;;;;;12.82;52.17;101100.92;1708277;84;27295;-51
2023/01/03 12:44:03;;;;;;;6.25;4.42;;;;;;;12.82;50.90;101108.53;1707932;84;25482;-50
2023/01/03 12:46:34;;;;;;;5.95;3.62;;;;;;;12.97;52.43;101106.02;1708192;84;25540;-48
2023/01/03 12:49:21;;;;;;;7.80;3.67;;;;;;;13.13;51.22;101112.47;1708260;84;25655;-51
2023/01/03 12:51:48;;;;;;;6.47;3.37;;;;;;;13.27;51.38;101112.69;1708333;84;25390;-49
2023/01/03 12:54:49;;;;;;;4.25;3.17;;;;;;;13.48;51.57;101114.16;1708207;84;28107;-52
2023/01/03 12:57:46;;;;;;;5.65;4.10;;;;;;;13.63;51.15;101119.23;1708006;83;25644;-49
2023/01/03 13:00:29;;;;;;;6.92;3.30;;;;;;;13.34;49.37;101112.30;1708169;84;25581;-50